<?xml version="1.0" encoding="UTF-8" standalone="no" ?>
<gpx xmlns="http://www.topografix.com/GPX/1/1" xmlns:xsi="http://www.w3.org/2001/XMLSchema-instance" xsi:schemaLocation="http://www.topografix.com/GPX/1/1 http://www.topografix.com/GPX/1/1/gpx.xsd" version="1.1" creator="VisuGPX - https://www.visugpx.com">
  <metadata>
    <name>222011</name>
    <desc><![CDATA[Balade vendéenne 2]]></desc>
  </metadata>
  <trk>
    <name><![CDATA[ACTIVE LOG094814]]></name>
    <trkseg>
      <trkpt lat="46.83741" lon="-2.12654">
        <ele>1.668</ele>
        <time>2011-08-05T07:48:13Z</time>
      </trkpt>
      <trkpt lat="46.83793" lon="-2.12623">
        <ele>6.167</ele>
        <time>2011-08-05T07:48:22Z</time>
      </trkpt>
      <trkpt lat="46.83799" lon="-2.12619">
        <ele>5.906</ele>
        <time>2011-08-05T07:48:23Z</time>
      </trkpt>
      <trkpt lat="46.83929" lon="-2.12536">
        <ele>3.408</ele>
        <time>2011-08-05T07:48:45Z</time>
      </trkpt>
      <trkpt lat="46.84073" lon="-2.12495">
        <ele>2.568</ele>
        <time>2011-08-05T07:49:08Z</time>
      </trkpt>
      <trkpt lat="46.84284" lon="-2.1246">
        <ele>3.66</ele>
        <time>2011-08-05T07:49:37Z</time>
      </trkpt>
      <trkpt lat="46.84304" lon="-2.12457">
        <ele>2.035</ele>
        <time>2011-08-05T07:49:40Z</time>
      </trkpt>
      <trkpt lat="46.84492" lon="-2.12431">
        <ele>2.378</ele>
        <time>2011-08-05T07:50:07Z</time>
      </trkpt>
      <trkpt lat="46.84666" lon="-2.12392">
        <ele>1.483</ele>
        <time>2011-08-05T07:50:32Z</time>
      </trkpt>
      <trkpt lat="46.84789" lon="-2.12302">
        <ele>2.787</ele>
        <time>2011-08-05T07:50:52Z</time>
      </trkpt>
      <trkpt lat="46.84982" lon="-2.12153">
        <ele>2.877</ele>
        <time>2011-08-05T07:51:22Z</time>
      </trkpt>
      <trkpt lat="46.8519" lon="-2.11996">
        <ele>2.945</ele>
        <time>2011-08-05T07:51:52Z</time>
      </trkpt>
      <trkpt lat="46.85403" lon="-2.11832">
        <ele>2.176</ele>
        <time>2011-08-05T07:52:22Z</time>
      </trkpt>
      <trkpt lat="46.85551" lon="-2.11737">
        <ele>2.077</ele>
        <time>2011-08-05T07:52:43Z</time>
      </trkpt>
      <trkpt lat="46.85748" lon="-2.11631">
        <ele>2.025</ele>
        <time>2011-08-05T07:53:11Z</time>
      </trkpt>
      <trkpt lat="46.85947" lon="-2.11537">
        <ele>2.356</ele>
        <time>2011-08-05T07:53:38Z</time>
      </trkpt>
      <trkpt lat="46.86123" lon="-2.11483">
        <ele>1.908</ele>
        <time>2011-08-05T07:54:01Z</time>
      </trkpt>
      <trkpt lat="46.86271" lon="-2.11515">
        <ele>2.05</ele>
        <time>2011-08-05T07:54:20Z</time>
      </trkpt>
      <trkpt lat="46.86518" lon="-2.1162">
        <ele>1.957</ele>
        <time>2011-08-05T07:54:53Z</time>
      </trkpt>
      <trkpt lat="46.86721" lon="-2.11705">
        <ele>1.029</ele>
        <time>2011-08-05T07:55:22Z</time>
      </trkpt>
      <trkpt lat="46.86905" lon="-2.11794">
        <ele>1.576</ele>
        <time>2011-08-05T07:55:49Z</time>
      </trkpt>
      <trkpt lat="46.87147" lon="-2.11893">
        <ele>1.398</ele>
        <time>2011-08-05T07:56:24Z</time>
      </trkpt>
      <trkpt lat="46.87342" lon="-2.11973">
        <ele>2.923</ele>
        <time>2011-08-05T07:56:51Z</time>
      </trkpt>
      <trkpt lat="46.87564" lon="-2.12062">
        <ele>1.911</ele>
        <time>2011-08-05T07:57:20Z</time>
      </trkpt>
      <trkpt lat="46.87691" lon="-2.12046">
        <ele>2.153</ele>
        <time>2011-08-05T07:57:36Z</time>
      </trkpt>
      <trkpt lat="46.87811" lon="-2.12">
        <ele>2.24</ele>
        <time>2011-08-05T07:57:52Z</time>
      </trkpt>
      <trkpt lat="46.87994" lon="-2.11938">
        <ele>1.937</ele>
        <time>2011-08-05T07:58:17Z</time>
      </trkpt>
      <trkpt lat="46.8812" lon="-2.1192">
        <ele>0.828</ele>
        <time>2011-08-05T07:58:35Z</time>
      </trkpt>
      <trkpt lat="46.8823" lon="-2.11929">
        <ele>2.997</ele>
        <time>2011-08-05T07:58:52Z</time>
      </trkpt>
      <trkpt lat="46.88236" lon="-2.1193">
        <ele>3.427</ele>
        <time>2011-08-05T07:58:53Z</time>
      </trkpt>
      <trkpt lat="46.88335" lon="-2.11941">
        <ele>3.725</ele>
        <time>2011-08-05T07:59:09Z</time>
      </trkpt>
      <trkpt lat="46.88396" lon="-2.11894">
        <ele>3.19</ele>
        <time>2011-08-05T07:59:20Z</time>
      </trkpt>
      <trkpt lat="46.88475" lon="-2.11805">
        <ele>3.492</ele>
        <time>2011-08-05T07:59:35Z</time>
      </trkpt>
      <trkpt lat="46.88581" lon="-2.11635">
        <ele>2.631</ele>
        <time>2011-08-05T07:59:56Z</time>
      </trkpt>
      <trkpt lat="46.88743" lon="-2.11375">
        <ele>3.18</ele>
        <time>2011-08-05T08:00:28Z</time>
      </trkpt>
      <trkpt lat="46.88848" lon="-2.11213">
        <ele>3.088</ele>
        <time>2011-08-05T08:00:48Z</time>
      </trkpt>
      <trkpt lat="46.88872" lon="-2.11185">
        <ele>3.444</ele>
        <time>2011-08-05T08:00:53Z</time>
      </trkpt>
      <trkpt lat="46.88875" lon="-2.11182">
        <ele>3.785</ele>
        <time>2011-08-05T08:00:57Z</time>
      </trkpt>
      <trkpt lat="46.88918" lon="-2.11046">
        <ele>4.413</ele>
        <time>2011-08-05T08:01:11Z</time>
      </trkpt>
      <trkpt lat="46.88927" lon="-2.10991">
        <ele>5.832</ele>
        <time>2011-08-05T08:01:23Z</time>
      </trkpt>
      <trkpt lat="46.88928" lon="-2.10976">
        <ele>5.583</ele>
        <time>2011-08-05T08:01:36Z</time>
      </trkpt>
      <trkpt lat="46.88928" lon="-2.10976">
        <ele>5.895</ele>
        <time>2011-08-05T08:02:21Z</time>
      </trkpt>
      <trkpt lat="46.8893" lon="-2.10954">
        <ele>5.585</ele>
        <time>2011-08-05T08:02:34Z</time>
      </trkpt>
      <trkpt lat="46.88931" lon="-2.10851">
        <ele>4.192</ele>
        <time>2011-08-05T08:02:46Z</time>
      </trkpt>
      <trkpt lat="46.88946" lon="-2.10576">
        <ele>2.916</ele>
        <time>2011-08-05T08:03:13Z</time>
      </trkpt>
      <trkpt lat="46.88959" lon="-2.10306">
        <ele>2.913</ele>
        <time>2011-08-05T08:03:39Z</time>
      </trkpt>
      <trkpt lat="46.88973" lon="-2.10013">
        <ele>1.588</ele>
        <time>2011-08-05T08:04:06Z</time>
      </trkpt>
      <trkpt lat="46.88981" lon="-2.0983">
        <ele>3.267</ele>
        <time>2011-08-05T08:04:26Z</time>
      </trkpt>
      <trkpt lat="46.88982" lon="-2.09801">
        <ele>3.467</ele>
        <time>2011-08-05T08:04:34Z</time>
      </trkpt>
      <trkpt lat="46.88982" lon="-2.09795">
        <ele>3.634</ele>
        <time>2011-08-05T08:04:44Z</time>
      </trkpt>
      <trkpt lat="46.88972" lon="-2.09776">
        <ele>2.925</ele>
        <time>2011-08-05T08:05:04Z</time>
      </trkpt>
      <trkpt lat="46.88969" lon="-2.0977">
        <ele>2.987</ele>
        <time>2011-08-05T08:05:06Z</time>
      </trkpt>
      <trkpt lat="46.88978" lon="-2.09753">
        <ele>3.417</ele>
        <time>2011-08-05T08:05:17Z</time>
      </trkpt>
      <trkpt lat="46.88987" lon="-2.09732">
        <ele>3.298</ele>
        <time>2011-08-05T08:05:30Z</time>
      </trkpt>
      <trkpt lat="46.88993" lon="-2.09613">
        <ele>2.588</ele>
        <time>2011-08-05T08:05:44Z</time>
      </trkpt>
      <trkpt lat="46.88979" lon="-2.09403">
        <ele>2.027</ele>
        <time>2011-08-05T08:06:05Z</time>
      </trkpt>
      <trkpt lat="46.88944" lon="-2.09094">
        <ele>1.428</ele>
        <time>2011-08-05T08:06:33Z</time>
      </trkpt>
      <trkpt lat="46.88903" lon="-2.08754">
        <ele>1.128</ele>
        <time>2011-08-05T08:07:03Z</time>
      </trkpt>
      <trkpt lat="46.88857" lon="-2.08362">
        <ele>1.143</ele>
        <time>2011-08-05T08:07:38Z</time>
      </trkpt>
      <trkpt lat="46.88824" lon="-2.08083">
        <ele>1.351</ele>
        <time>2011-08-05T08:08:05Z</time>
      </trkpt>
      <trkpt lat="46.88785" lon="-2.07745">
        <ele>1.699</ele>
        <time>2011-08-05T08:08:40Z</time>
      </trkpt>
      <trkpt lat="46.88763" lon="-2.0756">
        <ele>1.731</ele>
        <time>2011-08-05T08:08:57Z</time>
      </trkpt>
      <trkpt lat="46.88796" lon="-2.07424">
        <ele>1.321</ele>
        <time>2011-08-05T08:09:10Z</time>
      </trkpt>
      <trkpt lat="46.88888" lon="-2.07258">
        <ele>0.7</ele>
        <time>2011-08-05T08:09:29Z</time>
      </trkpt>
      <trkpt lat="46.89031" lon="-2.07031">
        <ele>1.08</ele>
        <time>2011-08-05T08:09:54Z</time>
      </trkpt>
      <trkpt lat="46.89122" lon="-2.0688">
        <ele>0.434</ele>
        <time>2011-08-05T08:10:10Z</time>
      </trkpt>
      <trkpt lat="46.89202" lon="-2.0673">
        <ele>1.468</ele>
        <time>2011-08-05T08:10:25Z</time>
      </trkpt>
      <trkpt lat="46.89313" lon="-2.06599">
        <ele>0.375</ele>
        <time>2011-08-05T08:10:43Z</time>
      </trkpt>
      <trkpt lat="46.8948" lon="-2.06501">
        <ele>0.736</ele>
        <time>2011-08-05T08:11:00Z</time>
      </trkpt>
      <trkpt lat="46.89572" lon="-2.0644">
        <ele>3.208</ele>
        <time>2011-08-05T08:11:12Z</time>
      </trkpt>
      <trkpt lat="46.89592" lon="-2.0643">
        <ele>3.54</ele>
        <time>2011-08-05T08:11:19Z</time>
      </trkpt>
      <trkpt lat="46.89592" lon="-2.0643">
        <ele>3.47</ele>
        <time>2011-08-05T08:11:20Z</time>
      </trkpt>
      <trkpt lat="46.89584" lon="-2.06433">
        <ele>3.787</ele>
        <time>2011-08-05T08:11:36Z</time>
      </trkpt>
      <trkpt lat="46.89584" lon="-2.06433">
        <ele>4.099</ele>
        <time>2011-08-05T08:12:27Z</time>
      </trkpt>
      <trkpt lat="46.89627" lon="-2.0642">
        <ele>3.366</ele>
        <time>2011-08-05T08:12:40Z</time>
      </trkpt>
      <trkpt lat="46.89714" lon="-2.0639">
        <ele>1.417</ele>
        <time>2011-08-05T08:12:52Z</time>
      </trkpt>
      <trkpt lat="46.8972" lon="-2.06389">
        <ele>0.444</ele>
        <time>2011-08-05T08:12:54Z</time>
      </trkpt>
      <trkpt lat="46.89927" lon="-2.0632">
        <ele>2.372</ele>
        <time>2011-08-05T08:13:19Z</time>
      </trkpt>
      <trkpt lat="46.90011" lon="-2.06242">
        <ele>1.586</ele>
        <time>2011-08-05T08:13:32Z</time>
      </trkpt>
      <trkpt lat="46.90103" lon="-2.06089">
        <ele>1.497</ele>
        <time>2011-08-05T08:13:50Z</time>
      </trkpt>
      <trkpt lat="46.90232" lon="-2.05884">
        <ele>1.521</ele>
        <time>2011-08-05T08:14:14Z</time>
      </trkpt>
      <trkpt lat="46.9036" lon="-2.05705">
        <ele>0.713</ele>
        <time>2011-08-05T08:14:36Z</time>
      </trkpt>
      <trkpt lat="46.90418" lon="-2.05528">
        <ele>0.827</ele>
        <time>2011-08-05T08:14:53Z</time>
      </trkpt>
      <trkpt lat="46.90425" lon="-2.05377">
        <ele>1.488</ele>
        <time>2011-08-05T08:15:06Z</time>
      </trkpt>
      <trkpt lat="46.90478" lon="-2.05156">
        <ele>1.602</ele>
        <time>2011-08-05T08:15:27Z</time>
      </trkpt>
      <trkpt lat="46.90542" lon="-2.0506">
        <ele>2.004</ele>
        <time>2011-08-05T08:15:39Z</time>
      </trkpt>
      <trkpt lat="46.90679" lon="-2.04954">
        <ele>2.803</ele>
        <time>2011-08-05T08:15:59Z</time>
      </trkpt>
      <trkpt lat="46.90852" lon="-2.04844">
        <ele>3.067</ele>
        <time>2011-08-05T08:16:25Z</time>
      </trkpt>
      <trkpt lat="46.90997" lon="-2.04748">
        <ele>3.14</ele>
        <time>2011-08-05T08:16:48Z</time>
      </trkpt>
      <trkpt lat="46.91081" lon="-2.04693">
        <ele>4.921</ele>
        <time>2011-08-05T08:17:04Z</time>
      </trkpt>
      <trkpt lat="46.91102" lon="-2.04685">
        <ele>5.652</ele>
        <time>2011-08-05T08:17:11Z</time>
      </trkpt>
      <trkpt lat="46.91102" lon="-2.04702">
        <ele>5.705</ele>
        <time>2011-08-05T08:17:26Z</time>
      </trkpt>
      <trkpt lat="46.91102" lon="-2.04702">
        <ele>5.057</ele>
        <time>2011-08-05T08:18:35Z</time>
      </trkpt>
      <trkpt lat="46.91102" lon="-2.04702">
        <ele>5.268</ele>
        <time>2011-08-05T08:18:44Z</time>
      </trkpt>
      <trkpt lat="46.91114" lon="-2.04674">
        <ele>5.277</ele>
        <time>2011-08-05T08:18:58Z</time>
      </trkpt>
      <trkpt lat="46.91114" lon="-2.04674">
        <ele>5.48</ele>
        <time>2011-08-05T08:19:01Z</time>
      </trkpt>
      <trkpt lat="46.9112" lon="-2.04669">
        <ele>5.302</ele>
        <time>2011-08-05T08:19:04Z</time>
      </trkpt>
      <trkpt lat="46.91131" lon="-2.04658">
        <ele>5.157</ele>
        <time>2011-08-05T08:19:08Z</time>
      </trkpt>
      <trkpt lat="46.91208" lon="-2.04604">
        <ele>5.44</ele>
        <time>2011-08-05T08:19:23Z</time>
      </trkpt>
      <trkpt lat="46.91338" lon="-2.04544">
        <ele>5.727</ele>
        <time>2011-08-05T08:19:44Z</time>
      </trkpt>
      <trkpt lat="46.9142" lon="-2.04547">
        <ele>5.361</ele>
        <time>2011-08-05T08:19:57Z</time>
      </trkpt>
    </trkseg>
  </trk>
</gpx>